Meteo4 di Emilio Bellavite Il primo osservatorio Meteo di Verona  
 
lunedì 16 luglio 2018
 
 
dati in tempo reale
Di seguito i dati in tempo reale delle stazioni on line della rete di Meteo4. Cliccando sul link della stazione, ove presente, si accederà al sito web personale.
Stazioni online
Località Giorno Ora Temp. Umid. Relat. Dew Point Press. Atm. Velocità Vento Direz. Vento Precip. Temp.
Min
Temp.
Max
Abano (PD) 16/07/18 04.55 19.9 °C 94 % 18.9 °C 1011.2 hPa 4.8 Km/h NNW 9.4 mm  19.9 °C 20.9 °C
Acquapendente (VT) 16/07/18 04.58 15.9 °C 86 % 13.6 °C 1015.6 hPa 0.0 Km/h N 0.0 mm  15.9 °C 19.6 °C
Acquaviva delle Fonti (BA) 16/07/18 04.58 20.5 °C 60 % 12.5 °C 1013.3 hPa 0.0 Km/h WSW 0.0 mm  20.5 °C 23.9 °C
Ala (TN) 16/07/18 04.58 18.3 °C 89 % 16.5 °C 1012.9 hPa 3.2 Km/h NNE 4.2 mm  18.3 °C 21.8 °C
Alleghe (BL) 16/07/18 04.58 11.8 °C 93 % 10.7 °C 1004.4 hPa 0.0 Km/h ESE 0.0 mm  11.8 °C 13.9 °C
Alleghe Lago (BL) 16/07/18 04.59 12.7 °C 92 % 11.4 °C 1017.3 hPa 11.7 Km/h ENE 0.0 mm  12.6 °C 14.3 °C
Ancona (AN) 16/07/18 04.45 21.0 °C 93 % 19.8 °C 1011.8 hPa 0.0 Km/h --- 0.0 mm  21.0 °C 23.0 °C
Ancona loc. Brecce Bianche (AN) 16/07/18 04.48 21.2 °C 78 % 17.2 °C 1018.8 hPa 2.9 Km/h NE 0.0 mm  21.2 °C 23.6 °C
Ardea (RM) 16/07/18 04.56 21.3 °C 89 % 19.4 °C 1013.8 hPa 0.0 Km/h E 0.0 mm  21.3 °C 24.1 °C
Arenzano (GE) 16/07/18 04.58 24.4 °C 85 % 21.8 °C 1012.6 hPa 11.3 Km/h SE 0.0 mm  24.3 °C 24.8 °C
Arquà Polesine (RO) 16/07/18 04.43 17.7 °C 85 % 15.1 °C 1015.6 hPa 30.6 Km/h NNE 1.0 mm  17.7 °C 23.7 °C
Arzignano loc. Castello (VI) 14/07/18 20.45 23.3 °C 75 % 18.6 °C 0.0 hPa 0.4 Km/h SW 0.0 mm  21.1 °C 31.1 °C
Arzignano Pugnello (VI) 16/07/18 04.58 18.4 °C 90 % 16.7 °C 1010.5 hPa 0.0 Km/h W 3.6 mm  18.3 °C 21.4 °C
Arzignano San Bortolo (VI) 16/07/18 04.49 19.7 °C 85 % 17.1 °C 1010.5 hPa 0.0 Km/h ENE 1.5 mm  19.7 °C 22.8 °C
Arzignano Tezze (VI) 16/07/18 04.49 19.7 °C 94 % 18.7 °C 1012.3 hPa 0.0 Km/h ENE 3.3 mm  19.7 °C 22.1 °C
Avio (TN) 16/07/18 04.58 19.1 °C 90 % 17.4 °C 1013.2 hPa 0.0 Km/h SSW 3.2 mm  19.1 °C 23.3 °C
Badia Calavena loc. San Valentino (VR) 16/07/18 04.58 15.6 °C 93 % 14.5 °C 1008.5 hPa 9.7 Km/h N 5.6 mm  15.6 °C 18.1 °C
Barbara (AN) 16/07/18 04.58 22.1 °C 72 % 16.8 °C 1013.9 hPa 8.6 Km/h SSW 0.0 mm  20.8 °C 22.8 °C
Barcellona P.G. Centro (ME) 16/07/18 04.58 24.6 °C 83 % 21.5 °C 1013.9 hPa 4.8 Km/h SE 0.0 mm  24.4 °C 26.4 °C
Barcellona Pozzo di Gotto (ME) 11/07/18 16.12 29.5 °C 38 % 13.7 °C 1012.3 hPa 12.2 Km/h ENE 0.0 mm  21.4 °C 30.2 °C
Bardolino (VR) 16/07/18 04.58 18.7 °C 90 % 17.2 °C 1005.4 hPa 0.0 Km/h NE 50.4 mm  18.2 °C 24.8 °C
Beccacivetta (VR) 16/07/18 04.49 17.9 °C 94 % 16.9 °C 1012.1 hPa 4.8 Km/h E 15.5 mm  17.9 °C 24.2 °C
Bellaria Igea Marina (RN) 16/07/18 04.58 20.8 °C 84 % 18.0 °C 1011.2 hPa 1.6 Km/h WSW 0.0 mm  20.8 °C 24.9 °C
Bellaria Igea Marina2 (RN) 16/07/18 04.58 21.0 °C 87 % 18.7 °C 1010.5 hPa 1.6 Km/h WSW 0.0 mm  20.9 °C 25.2 °C
Bellaria Igea Marina3 (RN) 16/07/18 04.58 20.1 °C 76 % 15.7 °C 1009.4 hPa 0.0 Km/h WSW 0.0 mm  19.9 °C 23.6 °C
Belluno Castion (BL) 16/07/18 04.30 15.8 °C 95 % 15.0 °C 1013.1 hPa 0.0 Km/h --- 0.0 mm  15.7 °C 16.9 °C
Bernate Ticino fraz. Casate (MI) 16/07/18 04.57 21.4 °C 75 % 16.8 °C 1010.0 hPa 4.7 Km/h ENE 0.0 mm  21.2 °C 24.6 °C
Besenello (TN) 16/07/18 04.59 18.2 °C 86 % 15.8 °C 1014.8 hPa 1.5 Km/h W 4.8 mm  18.2 °C 19.1 °C
Bientina (PI) 16/07/18 04.58 19.7 °C 91 % 18.2 °C 1012.9 hPa 0.0 Km/h NW 0.0 mm  19.7 °C 23.6 °C
Bisignano (CS) 16/07/18 04.58 23.5 °C 55 % 14.0 °C 1012.8 hPa 2.2 Km/h S 0.0 mm  22.7 °C 25.6 °C
Bitti (NU) 16/07/18 04.58 23.9 °C 61 % 15.9 °C 1016.4 hPa 2.2 Km/h S 0.0 mm  22.4 °C 24.9 °C
Bolognano di Arco (TN) 16/07/18 04.58 17.8 °C 95 % 17.0 °C 1013.4 hPa 0.0 Km/h SSE 4.2 mm  17.8 °C 22.0 °C
Bonorva (SS) 16/07/18 04.50 23.6 °C 63 % 16.2 °C 1012.9 hPa 3.2 Km/h NW 0.0 mm  22.8 °C 26.7 °C
Borgo Valsugana (TN) 16/07/18 04.49 16.6 °C 95 % 15.8 °C 1013.8 hPa 0.0 Km/h SW 2.0 mm  16.2 °C 16.9 °C
Borore (NU) 16/07/18 04.59 24.0 °C 60 % 15.8 °C 1012.7 hPa 0.0 Km/h W 0.0 mm  21.5 °C 24.1 °C
Brendola (VI) 16/07/18 04.57 20.1 °C 99 % 19.9 °C 998.7 hPa 3.6 Km/h SE 2.4 mm  20.1 °C 24.9 °C
Brolo c/da Parrazzà (ME) 16/07/18 04.55 23.4 °C 79 % 19.5 °C 1014.4 hPa 6.0 Km/h SE 0.0 mm  22.8 °C 25.3 °C
Brugine2 (PD) 16/07/18 04.48 19.2 °C 92 % 17.9 °C 1012.5 hPa 0.0 Km/h N 1.8 mm  18.3 °C 19.8 °C
Budoia (PN) 16/07/18 04.45 17.7 °C 92 % 16.3 °C 1012.3 hPa 4.8 Km/h NW 10.8 mm  17.4 °C 18.8 °C
Ca' Gallo (PU) 16/07/18 04.49 19.4 °C 88 % 17.4 °C 1008.4 hPa 0.0 Km/h N 0.0 mm  18.7 °C 19.6 °C
Calcinato (BS) 16/07/18 04.58 18.4 °C 91 % 16.9 °C 1014.6 hPa 1.6 Km/h SE 37.1 mm  17.9 °C 24.2 °C
Calliano (TN) 16/07/18 04.58 17.2 °C 93 % 16.1 °C 1013.5 hPa 11.3 Km/h E 5.0 mm  17.1 °C 18.5 °C
Cammarata (AG) 16/07/18 04.59 25.9 °C 54 % 15.9 °C 1012.3 hPa 6.9 Km/h N 0.0 mm  23.0 °C 25.9 °C
Campoformido (UD) 16/07/18 04.55 18.2 °C 79 % 14.5 °C 1012.4 hPa 0.4 Km/h NNW 0.8 mm  18.2 °C 19.8 °C
Capodimonte (VT) 16/07/18 04.55 21.5 °C 77 % 17.3 °C 1013.1 hPa 0.0 Km/h N 0.0 mm  20.7 °C 23.8 °C
Caprarola Centro Storico (VT) 16/07/18 04.58 20.5 °C 71 % 15.1 °C 1015.0 hPa 0.0 Km/h WSW 0.0 mm  20.2 °C 23.1 °C
Caprino (VR) 16/07/18 04.58 18.2 °C 94 % 17.2 °C 1009.6 hPa 0.0 Km/h NNW 10.8 mm  18.1 °C 23.5 °C
Carceri (PD) 16/07/18 04.44 19.1 °C 91 % 17.8 °C 1013.4 hPa 11.3 Km/h WNW 12.7 mm  18.9 °C 22.3 °C
Carmignano loc. Seano (PO) 16/07/18 04.59 20.8 °C 87 % 18.5 °C 1013.2 hPa 0.6 Km/h SW 0.0 mm  20.8 °C 23.4 °C
Carpi (MO) 16/07/18 04.58 21.3 °C 78 % 17.3 °C 1012.7 hPa 9.1 Km/h NE 0.0 mm  20.9 °C 23.9 °C
Cartigliano (VI) 16/07/18 04.58 18.7 °C 92 % 17.4 °C 1011.7 hPa 0.0 Km/h NW 4.6 mm  18.2 °C 20.6 °C
Cassano Magnago (VA) 16/07/18 04.49 21.4 °C 70 % 15.8 °C 1010.7 hPa 1.6 Km/h S 0.0 mm  21.2 °C 24.1 °C
Castel d'Azzano (VR) 16/07/18 04.45 18.7 °C 92 % 17.3 °C 881.9 hPa 0.0 Km/h SE 16.6 mm  18.7 °C 25.1 °C
Castelferro (AL) 16/07/18 04.58 21.3 °C 89 % 19.4 °C 1011.3 hPa 6.4 Km/h SE 0.0 mm  21.1 °C 22.2 °C
Castelfranco Veneto (TV) 14/07/18 23.55 19.3 °C 100 % 19.3 °C 1014.6 hPa 0.0 Km/h --- 38.2 mm  18.5 °C 31.2 °C
Castelnuovo V.C. (PI) 16/07/18 04.50 19.1 °C 62 % 11.6 °C 1012.3 hPa 0.0 Km/h SW 0.0 mm  18.9 °C 19.9 °C
Castiglione del Lago (PG) 16/07/18 04.50 17.6 °C 86 % 15.2 °C 1014.6 hPa 0.0 Km/h --- 0.0 mm  17.6 °C 22.7 °C
Cavazzale (VI) 15/07/18 09.35 28.5 °C 57 % 19.2 °C 1013.9 hPa 0.0 Km/h --- 0.0 mm  25.5 °C 28.7 °C
Cefalù (PA) 16/07/18 01.08 24.4 °C 84 % 21.5 °C 1012.0 hPa 5.6 Km/h SSW 0.0 mm  24.4 °C 24.9 °C
Cerea (VR) 15/07/18 23.20 25.8 °C 74 % 20.8 °C 1012.1 hPa 9.7 Km/h E 0.0 mm  18.9 °C 32.4 °C
Cerea2 (VR) 16/07/18 04.45 17.9 °C 91 % 16.4 °C 1015.1 hPa 11.1 Km/h E 19.8 mm  17.9 °C 23.6 °C
Cima Grappa (TV) 16/07/18 04.59 11.4 °C 83 % 8.6 °C 1014.8 hPa 4.3 Km/h SW 1.6 mm  10.6 °C 12.7 °C
Cismon del Grappa loc. Corlo (VI) 16/07/18 04.58 16.7 °C 92 % 15.4 °C 1016.2 hPa 3.9 Km/h ESE 2.2 mm  16.2 °C 17.0 °C
Cittadella (PD) 15/07/18 22.46 20.8 °C 88 % 18.7 °C 1013.3 hPa 1.7 Km/h SE 32.4 mm  19.5 °C 30.7 °C
Civita Castellana (VT) 16/07/18 04.59 19.0 °C 76 % 14.7 °C 1014.2 hPa 1.5 Km/h S 0.0 mm  19.0 °C 23.2 °C
Codroipo (UD) 16/07/18 04.59 19.5 °C 84 % 16.7 °C 1011.9 hPa 4.8 Km/h NE 0.6 mm  18.9 °C 19.7 °C
Cogollo del Cengio (VI) 16/07/18 04.54 17.4 °C 99 % 17.2 °C 1013.2 hPa 8.8 Km/h NW 1.6 mm  17.4 °C 20.7 °C
Cologna Veneta Sant'Andrea (VR) 16/07/18 04.50 19.2 °C 66 % 12.7 °C 1013.4 hPa 1.6 Km/h NNW 8.0 mm  19.2 °C 22.7 °C
Colognola ai Colli (VR) 16/07/18 04.50 19.1 °C 93 % 18.0 °C 1012.5 hPa 4.8 Km/h N 0.4 mm  18.9 °C 23.8 °C
Contrada Dosso Gervasio (VR) 16/07/18 04.45 15.5 °C 88 % 13.3 °C 1010.5 hPa 6.0 Km/h N 10.0 mm  15.3 °C 19.1 °C
Corrubio di S. Anna d'Alfaedo (VR) 09/07/18 23.10 20.7 °C 65 % 13.9 °C 1015.5 hPa 0.0 Km/h --- 0.0 mm  16.7 °C 23.7 °C
Cosseria Lidora (SV) 16/07/18 04.45 21.4 °C 93 % 20.2 °C 1010.9 hPa 4.8 Km/h SSE 0.0 mm  21.3 °C 21.9 °C
Costa di Vittorio Veneto (TV) 16/07/18 04.49 18.7 °C 89 % 16.8 °C 1010.7 hPa 1.4 Km/h NE 0.0 mm  18.0 °C 19.3 °C
Costa Volpino (BG) 16/07/18 0.0 °C 0 % 0.0 °C 0.0 hPa 0.0 Km/h 0.0 mm  0.0 °C 0.0 °C
Crespano del Grappa2 (TV) 16/07/18 04.49 18.4 °C 80 % 14.9 °C 1010.0 hPa 0.0 Km/h NE 1.3 mm  18.3 °C 19.5 °C
Dorno (PV) 16/07/18 04.59 22.4 °C 88 % 20.3 °C 1011.9 hPa 9.6 Km/h ESE 0.0 mm  21.9 °C 25.1 °C
Dossobuono (VR) 16/07/18 11.45 19.5 °C 87 % 17.3 °C 1015.8 hPa 16.1 Km/h N 4.9 mm  19.5 °C 25.1 °C
Erbezzo Passo Fittanze (VR) 16/07/18 04.35 12.8 °C 88 % 10.9 °C 1014.1 hPa 0.0 Km/h ENE 5.8 mm  11.5 °C 14.0 °C
Falzè di Piave (TV) 15/07/18 21.14 24.7 °C 61 % 16.7 °C 1012.9 hPa 3.0 Km/h ENE 0.0 mm  18.2 °C 30.9 °C
Farra di Soligo (TV) 16/07/18 04.59 17.4 °C 79 % 13.7 °C 1020.7 hPa 1.1 Km/h SSW 0.7 mm  17.4 °C 18.7 °C
Feltre Celarda (BL) 16/07/18 04.59 16.9 °C 91 % 15.4 °C 1014.3 hPa 0.0 Km/h NE 2.3 mm  16.3 °C 17.3 °C
Ferrara di M.B. (VR) 16/07/18 04.40 13.0 °C 92 % 11.7 °C 1009.5 hPa 9.7 Km/h N 3.8 mm  12.9 °C 15.8 °C
Fiavè loc. Ballino (TN) 16/07/18 04.58 14.7 °C 95 % 13.9 °C 1012.7 hPa 0.5 Km/h NW 6.6 mm  14.7 °C 16.8 °C
Filo di Argenta (FE) 16/07/18 04.55 20.6 °C 88 % 18.6 °C 1012.2 hPa 3.9 Km/h WNW 0.0 mm  20.6 °C 23.0 °C
Fogliano Redipuglia (GO) 16/07/18 04.59 19.6 °C 78 % 15.7 °C 1012.1 hPa 1.4 Km/h NW 0.0 mm  19.6 °C 21.0 °C
Foligno (PG) 16/07/18 04.40 21.6 °C 69 % 15.6 °C 1012.6 hPa 6.4 Km/h E 0.0 mm  21.6 °C 26.9 °C
Fontanafredda (PN) 16/07/18 04.58 18.0 °C 100 % 18.0 °C 1011.9 hPa 0.0 Km/h NW 0.0 mm  17.7 °C 18.8 °C
Fumane Contrada La Ca (VR) 16/07/18 04.49 16.9 °C 93 % 15.8 °C 1016.1 hPa 1.6 Km/h S 16.8 mm  16.9 °C 22.8 °C
Gaggiano (MI) 16/07/18 04.58 22.4 °C 80 % 18.8 °C 1012.0 hPa 8.1 Km/h ESE 0.0 mm  22.4 °C 25.2 °C
Gallio (VI) 16/07/18 04.45 12.9 °C 97 % 12.4 °C 1012.7 hPa 1.6 Km/h W 4.3 mm  12.9 °C 13.7 °C
Gardolo (TN) 16/07/18 04.58 16.8 °C 95 % 16.0 °C 1015.1 hPa 0.0 Km/h NNE 3.0 mm  16.9 °C 17.3 °C
Genova Albaro (GE) 16/07/18 04.59 24.1 °C 76 % 19.6 °C 1023.0 hPa 3.4 Km/h E 0.0 mm  24.0 °C 24.6 °C
Genova Erzelli (GE) 16/07/18 04.53 24.8 °C 82 % 21.5 °C 1011.5 hPa 3.2 Km/h N 0.0 mm  24.7 °C 25.1 °C
Gradisca d'Isonzo (GO) 16/07/18 04.59 18.6 °C 84 % 15.8 °C 1012.1 hPa 0.0 Km/h ESE 0.0 mm  18.6 °C 21.9 °C
Iglesias (CI) 16/07/18 04.49 24.5 °C 86 % 22.0 °C 1015.8 hPa 0.0 Km/h NW 0.0 mm  24.2 °C 26.0 °C
Isera loc. Reviano (TN) 16/07/18 04.59 17.2 °C 93 % 16.1 °C 1013.7 hPa 4.6 Km/h NW 5.1 mm  17.2 °C 19.4 °C
Isola d'Elba Marina di Campo (LI) 15/07/18 22.00 24.9 °C 83 % 21.9 °C 567.0 hPa 0.0 Km/h --- 0.0 mm  19.8 °C 30.3 °C
Jesolo (VE) 15/07/18 23.00 21.7 °C 0 % 0.0 °C 1009.6 hPa 4.8 Km/h NNW 0.0 mm  21.3 °C 30.8 °C
Lavis (TN) 16/07/18 04.15 17.2 °C 92 % 16.1 °C 1015.4 hPa 1.7 Km/h W 1.8 mm  17.3 °C 17.7 °C
Laxolo (BG) 16/07/18 04.56 18.0 °C 99 % 17.8 °C 1013.9 hPa 1.3 Km/h W 12.4 mm  17.2 °C 27.0 °C
Legnago (VR) 16/07/18 04.55 18.4 °C 94 % 17.5 °C 1013.3 hPa 3.2 Km/h ENE 27.2 mm  17.6 °C 23.4 °C
Lendinara2 (RO) 16/07/18 04.49 16.3 °C 91 % 14.8 °C 1013.7 hPa 3.2 Km/h WNW 21.1 mm  16.3 °C 22.4 °C
Lesmo (MB) 16/07/18 04.55 20.2 °C 82 % 17.0 °C 1012.3 hPa 3.2 Km/h E 0.0 mm  20.2 °C 23.2 °C
Loano (SV) 16/07/18 04.55 25.3 °C 80 % 21.6 °C 1011.6 hPa 6.0 Km/h N 0.0 mm  25.2 °C 25.9 °C
Lovere (BG) 16/07/18 04.48 18.0 °C 70 % 2.0 °C 1014.0 hPa 5.8 Km/h WSW 16.0 mm  18.0 °C 21.9 °C
Lugagnano (VR) 16/07/18 04.58 19.2 °C 94 % 18.2 °C 1010.7 hPa 0.0 Km/h S 13.6 mm  18.7 °C 25.6 °C
Lusiana Sciessere (VI) 16/07/18 04.49 16.3 °C 85 % 13.8 °C 1016.8 hPa 0.0 Km/h N 3.3 mm  16.3 °C 17.8 °C
Magnano (BI) 16/07/18 04.59 18.1 °C 99 % 18.0 °C 1006.2 hPa 0.0 Km/h N 0.0 mm  18.1 °C 19.7 °C
Malnate San Salvatore (VA) 16/07/18 04.55 20.2 °C 74 % 15.4 °C 1012.6 hPa 0.0 Km/h NNW 0.0 mm  19.3 °C 22.5 °C
Marano Vicentino2 (VI) 16/07/18 04.55 19.1 °C 91 % 17.6 °C 1012.7 hPa 0.0 Km/h SSW 2.1 mm  19.7 °C 21.1 °C
Margone (TN) 15/07/18 20.45 17.6 °C 88 % 15.6 °C 1014.4 hPa 4.5 Km/h N 0.0 mm  14.4 °C 23.9 °C
Marina di Montemarciano (AN) 16/07/18 04.55 20.8 °C 90 % 19.1 °C 1011.2 hPa 0.0 Km/h --- 0.0 mm  20.8 °C 23.6 °C
Marostica Valle San Floriano (VI) 16/07/18 04.58 17.8 °C 94 % 16.7 °C 1013.5 hPa 0.0 Km/h SE 2.8 mm  17.8 °C 20.8 °C
Marta (VT) 16/07/18 04.55 21.8 °C 76 % 17.4 °C 1012.7 hPa 3.7 Km/h SW 0.0 mm  21.2 °C 23.1 °C
Masiera di Bagnacavallo (RA) 16/07/18 04.55 20.2 °C 89 % 18.3 °C 1007.7 hPa 0.0 Km/h --- 0.0 mm  20.2 °C 22.1 °C
Massarosa (LU) 16/07/18 04.59 21.3 °C 89 % 19.4 °C 1001.5 hPa 2.5 Km/h NE 0.0 mm  21.3 °C 23.6 °C
Massone di Arco (TN) 16/07/18 04.59 18.3 °C 91 % 16.8 °C 1013.6 hPa 2.0 Km/h NNE 4.1 mm  18.3 °C 22.8 °C
Merlara (PD) 16/07/18 04.15 19.5 °C 84 % 16.7 °C 1013.0 hPa 25.7 Km/h WNW 0.0 mm  19.1 °C 23.5 °C
Mezzana Bigli (PV) 16/07/18 04.55 21.5 °C 88 % 19.4 °C 1010.9 hPa 0.0 Km/h WSW 0.0 mm  21.3 °C 23.9 °C
Migliarino (FE) 16/07/18 04.58 22.6 °C 83 % 19.6 °C 1012.1 hPa 14.8 Km/h N 0.0 mm  22.1 °C 25.1 °C
Miglionico (MT) 16/07/18 04.50 24.3 °C 60 % 16.0 °C 1010.3 hPa 3.2 Km/h WNW 0.0 mm  23.6 °C 25.2 °C
Miola di Piné (TN) 16/07/18 04.59 13.1 °C 96 % 12.5 °C 1013.5 hPa 2.9 Km/h NNE 1.8 mm  12.6 °C 13.5 °C
Mirabella Imbaccari (CT) 16/07/18 03.16 24.3 °C 48 % 12.6 °C 1011.6 hPa 0.0 Km/h W 0.0 mm  23.9 °C 25.1 °C
Mizzole (VR) 16/07/18 04.59 18.9 °C 95 % 18.1 °C 1012.6 hPa 1.1 Km/h SW 26.8 mm  18.6 °C 24.4 °C
Molina (VR) 16/07/18 04.49 15.6 °C 90 % 13.9 °C 1015.7 hPa 1.3 Km/h NE 8.1 mm  15.6 °C 19.1 °C
Monasterolo Torinese (TO) 16/07/18 04.50 20.2 °C 76 % 15.8 °C 1008.0 hPa 0.0 Km/h --- 0.0 mm  18.4 °C 21.9 °C
Moneglia loc. Casale (GE) 16/07/18 04.59 22.5 °C 83 % 19.5 °C 1014.0 hPa 0.0 Km/h E 0.0 mm  21.9 °C 22.7 °C
Moneglia loc. La Secca (GE) 16/07/18 04.59 23.8 °C 82 % 20.5 °C 1012.5 hPa 0.0 Km/h N 0.0 mm  22.7 °C 24.1 °C
Mongrando San Michele (BI) 16/07/18 04.55 18.2 °C 88 % 16.2 °C 1011.0 hPa 0.0 Km/h ESE 0.0 mm  18.2 °C 19.7 °C
Monselice (PD) 16/07/18 04.58 20.9 °C 82 % 17.7 °C 1014.4 hPa 6.1 Km/h N 0.0 mm  20.7 °C 22.8 °C
Monte Rufeno (VT) 16/07/18 04.59 21.9 °C 47 % 10.0 °C 1021.9 hPa 0.0 Km/h ENE 0.0 mm  21.8 °C 22.9 °C
Montebello Vicentino loc. Selva (VI) 16/07/18 04.59 19.1 °C 75 % 14.6 °C 1014.9 hPa 6.5 Km/h NNE 2.1 mm  19.1 °C 22.5 °C
Montecchio Maggiore Sant'Urbano (VI) 16/07/18 04.45 19.2 °C 76 % 14.8 °C 1017.8 hPa 4.2 Km/h W 2.8 mm  19.2 °C 21.6 °C
Monteforte d'Alpone2 (VR) 16/07/18 04.55 19.5 °C 90 % 17.8 °C 1011.4 hPa 8.0 Km/h E 14.6 mm  19.5 °C 22.2 °C
Montelabbate (PU) 16/07/18 04.50 19.8 °C 85 % 17.2 °C 1006.7 hPa 5.3 Km/h SSW 0.0 mm  19.6 °C 21.9 °C
Montopoli in val d'Arno Loc. Capanne (PI) 16/07/18 04.45 18.9 °C 92 % 17.6 °C 1013.6 hPa 2.9 Km/h ESE 0.0 mm  18.9 °C 23.3 °C
Montorio (VR) 16/07/18 04.49 19.1 °C 94 % 18.1 °C 1014.1 hPa 3.2 Km/h ESE 23.6 mm  18.8 °C 24.9 °C
Montorso Vicentino (VI) 16/07/18 04.59 18.6 °C 88 % 16.5 °C 1011.9 hPa 0.0 Km/h E 4.0 mm  18.5 °C 20.5 °C
Morbegno (SO) 16/07/18 04.59 17.9 °C 84 % 15.2 °C 1014.4 hPa 16.9 Km/h SE 4.1 mm  17.7 °C 22.2 °C
Muzzano (BI) 15/07/18 23.50 22.0 °C 74 % 17.2 °C 1010.6 hPa 4.8 Km/h WNW 0.0 mm  16.9 °C 27.6 °C
Nichelino (TO) 16/07/18 04.50 21.9 °C 67 % 15.5 °C 1012.8 hPa 0.0 Km/h SSE 0.0 mm  21.9 °C 23.7 °C
Novara (NO) 16/07/18 01.50 23.2 °C 76 % 18.8 °C 1011.5 hPa 0.0 Km/h --- 0.0 mm  23.2 °C 24.8 °C
Onara extraurbana (PD) 16/07/18 04.54 18.7 °C 93 % 17.5 °C 1012.4 hPa 0.0 Km/h SW 3.5 mm  18.7 °C 19.6 °C
Oppeano (VR) 15/07/18 22.00 26.7 °C 60 % 18.3 °C 1008.9 hPa 0.0 Km/h NE 0.0 mm  19.1 °C 33.6 °C
Oristano (OR) 16/07/18 04.58 24.8 °C 81 % 21.3 °C 1012.1 hPa 1.1 Km/h ENE 0.0 mm  23.0 °C 24.8 °C
Orosei (NU) 16/07/18 04.55 24.4 °C 82 % 21.2 °C 1013.4 hPa 1.6 Km/h WSW 0.0 mm  24.2 °C 25.6 °C
Ortonovo (SP) 16/07/18 04.59 21.4 °C 93 % 20.2 °C 1015.4 hPa 9.6 Km/h SE 0.0 mm  21.4 °C 22.1 °C
Orvieto (TR) 15/07/18 23.31 22.9 °C 63 % 15.5 °C 1013.4 hPa 0.0 Km/h S 0.0 mm  17.1 °C 35.6 °C
Ostana (CN) 16/07/18 02.16 0.0 °C 0 % -37.0 °C 1012.6 hPa 0.0 Km/h --- 0.0 mm  0.0 °C 0.0 °C
Ovaro loc. Liariis (UD) 16/07/18 04.45 14.0 °C 96 % 13.4 °C 1014.0 hPa 0.0 Km/h --- 0.8 mm  13.9 °C 16.3 °C
Pace del Mela (ME) 16/07/18 04.58 23.6 °C 91 % 22.1 °C 1015.7 hPa 0.0 Km/h S 0.0 mm  23.3 °C 25.0 °C
Padergnone (TN) 16/07/18 04.45 17.9 °C 91 % 16.5 °C 1014.0 hPa 1.5 Km/h N 3.4 mm  17.9 °C 20.1 °C
Parella (TO) 16/07/18 04.49 20.1 °C 78 % 16.1 °C 1009.0 hPa 0.0 Km/h NW 0.0 mm  19.8 °C 22.8 °C
Pastrengo (VR) 16/07/18 04.49 18.3 °C 98 % 18.0 °C 1015.2 hPa 2.4 Km/h SE 26.4 mm  18.2 °C 25.4 °C
Pastrengo Corné (VR) 16/07/18 04.54 17.9 °C 97 % 17.4 °C 1010.6 hPa 0.0 Km/h E 31.8 mm  17.7 °C 24.5 °C
Pecetto Torinese (TO) 16/07/18 04.49 20.8 °C 62 % 13.2 °C 1010.4 hPa 0.0 Km/h NNW 0.0 mm  20.8 °C 23.7 °C
Pedemonte (VR) 16/07/18 04.50 19.2 °C 92 % 17.8 °C 1011.8 hPa 5.0 Km/h W 38.2 mm  19.2 °C 24.3 °C
Perarolo di Arcugnano (VI) 16/07/18 03.33 20.9 °C 78 % 16.9 °C 983.2 hPa 0.0 Km/h N 0.0 mm  20.5 °C 20.9 °C
Perugia San Mariano (PG) 16/07/18 04.45 20.8 °C 70 % 15.1 °C 1014.3 hPa 0.0 Km/h N 0.0 mm  20.8 °C 24.3 °C
Pescantina Are (VR) 16/07/18 04.49 19.1 °C 96 % 18.4 °C 1012.1 hPa 0.0 Km/h E 39.6 mm  18.9 °C 25.1 °C
Peschiera del Garda (VR) 16/07/18 04.50 19.0 °C 92 % 17.7 °C 1012.7 hPa 8.0 Km/h NE 21.1 mm  18.8 °C 25.3 °C
Pian di Castagné (VR) 11/07/18 17.30 23.3 °C 62 % 15.6 °C 1010.4 hPa 8.0 Km/h ENE 3.3 mm  17.1 °C 23.4 °C
Pian di Castagné2 (VR) 16/07/18 04.49 17.2 °C 95 % 16.4 °C 1014.1 hPa 20.6 Km/h NE 17.0 mm  16.9 °C 20.9 °C
Pila Valsesia (VC) 16/07/18 04.50 14.1 °C 90 % 12.4 °C 1010.1 hPa 0.0 Km/h W 0.0 mm  14.1 °C 16.6 °C
Piovà Massaia (AT) 16/07/18 04.58 18.9 °C 95 % 18.1 °C 1009.7 hPa 0.0 Km/h NW 0.0 mm  18.9 °C 22.0 °C
Piraino contr. Fiumara (ME) 16/07/18 04.50 21.8 °C 87 % 19.5 °C 1015.0 hPa 0.0 Km/h NE 0.0 mm  21.7 °C 25.9 °C
Pisa zona I Passi (PI) 16/07/18 04.59 20.5 °C 86 % 18.1 °C 1014.3 hPa 5.0 Km/h ENE 0.0 mm  20.2 °C 24.0 °C
Pojana Maggiore Cagnano (VI) 16/07/18 04.56 19.6 °C 91 % 18.1 °C 1012.0 hPa 0.0 Km/h W 2.7 mm  19.6 °C 22.4 °C
Pomezia (RM) 16/07/18 04.59 21.6 °C 87 % 19.3 °C 1012.2 hPa 0.0 Km/h SE 0.0 mm  21.6 °C 25.5 °C
Ponte San Nicolò (PD) 16/07/18 04.48 20.3 °C 91 % 18.8 °C 1012.3 hPa 4.8 Km/h NNW 5.3 mm  20.1 °C 21.4 °C
Ponte San Pellegrino (MO) 16/07/18 04.57 20.1 °C 84 % 17.3 °C 1016.6 hPa 17.3 Km/h NW 0.0 mm  20.0 °C 22.8 °C
Pordenone (PN) 16/07/18 04.50 19.2 °C 91 % 17.7 °C 1012.1 hPa 0.0 Km/h --- 0.0 mm  19.1 °C 20.2 °C
Pozzolo Formigaro (AL) 16/07/18 04.56 20.5 °C 90 % 18.8 °C 1012.6 hPa 0.0 Km/h SW 0.0 mm  20.5 °C 23.2 °C
Pray (BI) 16/07/18 04.59 17.4 °C 94 % 16.4 °C 1011.2 hPa 0.0 Km/h --- 0.0 mm  17.4 °C 19.8 °C
Reggello (FI) 16/07/18 04.58 19.1 °C 75 % 14.6 °C 1015.5 hPa 11.3 Km/h SO 0.0 mm  18.1 °C 21.8 °C
Riccione (RN) 16/07/18 04.30 20.7 °C 88 % 18.7 °C 1009.6 hPa 1.6 Km/h SW 0.0 mm  20.6 °C 22.9 °C
Rifugio Bocca di Selva (VR) 16/07/18 04.59 12.9 °C 83 % 10.1 °C 1011.4 hPa 22.5 Km/h NNE 0.0 mm  10.9 °C 14.6 °C
Rifugio Primaneve (VR) 16/07/18 04.48 10.4 °C 98 % 10.1 °C 1012.5 hPa 4.8 Km/h NE 2.8 mm  9.7 °C 12.6 °C
Rimini (RN) 16/07/18 04.40 21.1 °C 83 % 18.1 °C 1011.8 hPa 0.0 Km/h W 0.0 mm  21.1 °C 23.6 °C
Rimini Zona Palas (RN) 16/07/18 04.45 21.6 °C 82 % 18.3 °C 1011.7 hPa 6.4 Km/h W 0.0 mm  21.6 °C 23.7 °C
Rivalta sul Mincio (MN) 16/07/18 04.54 18.4 °C 93 % 17.3 °C 1012.5 hPa 7.8 Km/h SE 5.8 mm  18.4 °C 24.6 °C
Romano d'Ezzelino Fellette (VI) 16/07/18 04.59 18.9 °C 16 % -7.5 °C 1016.8 hPa 0.0 Km/h N 1.0 mm  18.9 °C 21.2 °C
Ronciglione Centro (VT) 16/07/18 04.55 21.8 °C 54 % 12.1 °C 1016.0 hPa 3.2 Km/h NW 0.0 mm  21.2 °C 23.5 °C
Ronciglione - Ponte Cuzzoli (VT) 16/07/18 04.55 20.2 °C 75 % 15.6 °C 1012.9 hPa 1.6 Km/h W 0.0 mm  19.2 °C 22.1 °C
Rosolina (RO) 16/07/18 04.45 21.4 °C 87 % 19.2 °C 1011.9 hPa 4.8 Km/h N 0.5 mm  20.4 °C 21.9 °C
S. Giovanni Ilarione2 (VR) 16/07/18 04.55 19.4 °C 92 % 18.1 °C 1011.7 hPa 3.2 Km/h WNW 5.0 mm  19.4 °C 22.8 °C
S. Giovanni Lupatoto (VR) 16/07/18 04.50 18.7 °C 94 % 17.7 °C 1012.4 hPa 0.0 Km/h SE 19.0 mm  18.4 °C 24.6 °C
S. Giovanni Rotondo (FG) 16/07/18 04.50 21.6 °C 66 % 14.9 °C 1011.2 hPa 0.0 Km/h --- 0.0 mm  21.5 °C 24.3 °C
S. Lorenzo di Vittorio Veneto (TV) 16/07/18 04.55 18.6 °C 81 % 15.3 °C 1012.7 hPa 9.7 Km/h N 0.3 mm  18.5 °C 19.7 °C
S. Lorenzo Nuovo (VT) 16/07/18 04.59 22.4 °C 56 % 12.9 °C 1013.6 hPa 0.0 Km/h NE 0.0 mm  21.5 °C 23.7 °C
S. Maria di Zevio Loc. 3 Ponti (VR) 16/07/18 04.58 17.9 °C 98 % 17.8 °C 1013.4 hPa 2.0 Km/h ESE 11.4 mm  17.2 °C 23.5 °C
S. Maria Maddalena (RO) 16/07/18 04.55 20.2 °C 81 % 17.2 °C 1013.0 hPa 22.6 Km/h WNW 0.6 mm  20.2 °C 24.8 °C
S. Martino Lupari (PD) 16/07/18 04.50 18.9 °C 93 % 17.8 °C 821.8 hPa 0.0 Km/h SSE 3.4 mm  18.9 °C 20.3 °C
Sacile (PN) 16/07/18 04.45 18.6 °C 94 % 17.6 °C 1013.1 hPa 1.6 Km/h NNE 0.0 mm  18.6 °C 19.6 °C
San Benedetto del Tronto (AP) 16/07/18 04.30 24.1 °C 82 % 20.8 °C 1011.5 hPa 1.9 Km/h W 0.0 mm  24.1 °C 25.3 °C
San Cataldo (CL) 16/07/18 02.59 22.0 °C 78 % 18.0 °C 1015.6 hPa 0.0 Km/h NNE 0.0 mm  22.0 °C 22.8 °C
San Giovanni la Punta Trappeto (CT) 16/07/18 00.35 23.9 °C 86 % 21.5 °C 1014.2 hPa 0.0 Km/h E 0.0 mm  23.9 °C 24.3 °C
San Nazario (VI) 16/07/18 04.43 18.2 °C 92 % 16.9 °C 1012.8 hPa 8.7 Km/h NNW 2.3 mm  18.2 °C 19.1 °C
San Pietro di Rosà (VI) 16/07/18 04.59 18.8 °C 90 % 17.1 °C 1016.5 hPa 3.3 Km/h SE 5.4 mm  18.8 °C 20.9 °C
San Pietro in Cariano (VR) 16/07/18 04.49 18.7 °C 99 % 18.5 °C 1013.4 hPa 7.2 Km/h S 28.7 mm  18.4 °C 24.8 °C
San Salvo3 (CH) 16/07/18 04.59 20.7 °C 81 % 17.3 °C 1009.2 hPa 3.2 Km/h SSW 0.0 mm  20.7 °C 22.7 °C
San Zeno di Mont. Loc. Castello (VR) 16/07/18 04.59 16.4 °C 80 % 12.8 °C 1010.7 hPa 8.0 Km/h WSW 5.0 mm  15.8 °C 20.8 °C
Santa Maria di Negrar (VR) 16/07/18 04.49 18.8 °C 90 % 17.1 °C 1013.8 hPa 0.0 Km/h WNW 31.2 mm  18.7 °C 25.1 °C
Sarcedo (VI) 16/07/18 04.58 19.0 °C 89 % 17.1 °C 1012.1 hPa 2.2 Km/h WNW 11.4 mm  19.1 °C 22.4 °C
Savelli (KR) 15/07/18 05.23 21.6 °C 63 % 14.3 °C 1012.7 hPa 2.6 Km/h WNW 0.0 mm  21.4 °C 21.8 °C
Schio (VI) 16/07/18 04.35 19.8 °C 88 % 17.8 °C 1013.7 hPa 0.0 Km/h NNW 6.2 mm  19.8 °C 21.8 °C
Schio Monte Magré (VI) 16/07/18 04.59 18.2 °C 93 % 17.0 °C 0.0 hPa 0.0 Km/h WSW 14.6 mm  17.7 °C 19.2 °C
Seremange Erzange (Moselle) 16/07/18 04.58 14.2 °C 97 % 13.7 °C 1014.3 hPa 0.0 Km/h WNW 0.0 mm  14.6 °C 16.4 °C
Sinnai (CA) 16/07/18 00.00 28.4 °C 56 % 18.8 °C 1013.9 hPa 0.0 Km/h SE 0.0 mm  28.3 °C 28.4 °C
Soave Borgo Bassano (VR) 16/07/18 04.55 19.2 °C 97 % 18.7 °C 1011.9 hPa 6.0 Km/h ENE 22.2 mm  19.2 °C 24.2 °C
Sona Loc. La Colombara (VR) 16/07/18 04.00 18.6 °C 93 % 17.2 °C 1010.0 hPa 8.0 Km/h NNW 18.0 mm  18.6 °C 24.8 °C
Soriso (NO) 13/07/18 06.50 18.4 °C 91 % 16.9 °C 1015.8 hPa 0.0 Km/h W 0.0 mm  17.9 °C 20.7 °C
Staranzano (GO) 16/07/18 04.40 21.1 °C 72 % 15.9 °C 1012.4 hPa 0.0 Km/h NE 0.3 mm  20.8 °C 21.7 °C
Stiore - Monteveglio (BO) 16/07/18 04.59 18.2 °C 93 % 17.0 °C 1009.7 hPa 4.8 Km/h NNE 0.3 mm  18.1 °C 21.2 °C
Taio Mollaro (TN) 16/07/18 04.58 15.1 °C 93 % 14.0 °C 1017.8 hPa 0.0 Km/h NNE 0.0 mm  15.1 °C 15.7 °C
Tombolo (PD) 16/07/18 04.59 19.1 °C 93 % 17.9 °C 1013.2 hPa 3.3 Km/h WNW 3.6 mm  18.9 °C 19.6 °C
Torino Regio Parco (TO) 16/07/18 04.59 21.6 °C 71 % 16.1 °C 1012.5 hPa 0.0 Km/h NNW 0.0 mm  21.6 °C 24.4 °C
Torre Annunziata (NA) 16/07/18 04.55 23.7 °C 3 % -24.2 °C 1013.5 hPa 0.0 Km/h NW 0.0 mm  23.7 °C 25.9 °C
Torri (FI) 16/07/18 04.45 17.2 °C 95 % 16.4 °C 1012.7 hPa 0.0 Km/h --- 0.0 mm  17.0 °C 19.0 °C
Torrita di Siena (SI) 16/07/18 04.50 16.6 °C 84 % 13.9 °C 1013.9 hPa 0.0 Km/h --- 0.0 mm  16.6 °C 23.2 °C
Tregnago Loc. Centro (VR) 16/07/18 03.30 18.4 °C 87 % 16.2 °C 1006.3 hPa 8.0 Km/h NW 4.6 mm  18.4 °C 20.7 °C
Trento (TN) 16/07/18 04.59 18.1 °C 87 % 15.9 °C 1013.7 hPa 3.2 Km/h NNE 3.6 mm  18.1 °C 19.4 °C
Treviso (TV) 13/07/18 04.49 17.9 °C 97 % 17.4 °C 1014.6 hPa 1.0 Km/h N 4.5 mm  17.9 °C 22.0 °C
Val Lastaro (VI) 16/07/18 04.54 12.9 °C 95 % 12.2 °C 1012.7 hPa 0.0 Km/h N 3.6 mm  12.9 °C 14.0 °C
Valdagno (VI) 16/07/18 04.59 18.5 °C 95 % 17.7 °C 991.0 hPa 3.6 Km/h N 6.0 mm  18.4 °C 20.7 °C
Valdobbiadene San Pietro di Barbozza (TV) 16/07/18 04.55 18.8 °C 75 % 14.3 °C 1011.6 hPa 4.8 Km/h NNW 0.8 mm  17.7 °C 21.9 °C
Valentano (VT) 16/07/18 04.59 23.3 °C 52 % 12.8 °C 1011.2 hPa 0.0 Km/h WNW 0.0 mm  22.5 °C 24.1 °C
Valenza (AL) 16/07/18 04.50 21.1 °C 89 % 19.2 °C 1010.5 hPa 4.8 Km/h S 0.0 mm  20.9 °C 24.0 °C
Valli del Pasubio loc. Gisbenti (VI) 16/07/18 04.59 17.5 °C 95 % 16.7 °C 968.0 hPa 0.0 Km/h --- 4.1 mm  17.5 °C 20.7 °C
Varese Ligure (SP) 16/07/18 04.59 17.9 °C 43 % 5.2 °C 1010.7 hPa 1.0 Km/h S 0.0 mm  17.3 °C 18.9 °C
Vasto (CH) 15/07/18 22.01 25.1 °C 10 % -8.6 °C 1011.1 hPa 7.1 Km/h SW 0.0 mm  21.1 °C 30.4 °C
Vattaro fraz. Pian dei Pradi (TN) 16/07/18 05.01 13.7 °C 96 % 13.1 °C 1014.1 hPa 0.0 Km/h N 4.8 mm  13.7 °C 14.7 °C
Vazzo Roveré Veronese (VR) 16/07/18 04.59 15.1 °C 83 % 12.2 °C 1008.5 hPa 9.7 Km/h NNE 8.2 mm  14.9 °C 16.9 °C
Verona Bgo Venezia (iz3sly) (VR) 15/07/18 19.43 29.7 °C 53 % 19.1 °C 1009.4 hPa 6.4 Km/h W 0.0 mm  20.0 °C 32.4 °C
Verona Cadidavid2 (VR) 11/07/18 10.30 22.7 °C 66 % 16.0 °C 1009.9 hPa 11.1 Km/h ESE 5.3 mm  18.2 °C 23.6 °C
Verona Saval3 (VR) 16/07/18 04.49 19.0 °C 99 % 18.8 °C 1013.8 hPa 4.3 Km/h SW 19.3 mm  -573.3 °C 25.5 °C
Vicenza Campedello (VI) 10/07/18 14.17 28.6 °C 51 % 17.2 °C 1012.6 hPa 3.2 Km/h SSE 0.4 mm  19.1 °C 29.2 °C
Vicenza Moracchino (VI) 15/07/18 23.25 19.8 °C 91 % 18.3 °C 1013.2 hPa 11.3 Km/h SE 13.8 mm  19.4 °C 30.8 °C
Vicenza Pecori Giraldi (VI) 16/07/18 04.45 20.2 °C 100 % 20.2 °C 1015.5 hPa 0.0 Km/h SSW 3.8 mm  20.1 °C 20.8 °C
Vicenza S. Lazzaro (VI) 16/07/18 05.00 20.1 °C 89 % 18.3 °C 1012.2 hPa 10.0 Km/h SE 4.8 mm  19.8 °C 20.4 °C
Vicenza San Gaetano (VI) 15/07/18 23.16 20.8 °C 89 % 18.9 °C 1013.8 hPa 0.0 Km/h SE 11.0 mm  19.9 °C 31.3 °C
Vieste (FG) 16/07/18 05.00 23.7 °C 65 % 16.7 °C 1013.7 hPa 4.5 Km/h WNW 0.0 mm  23.7 °C 25.2 °C
Vigardolo (VI) 16/07/18 04.49 19.6 °C 89 % 17.7 °C 1013.3 hPa 1.1 Km/h NW 5.1 mm  19.5 °C 21.2 °C
Vigasio (VR) 16/07/18 04.40 18.9 °C 94 % 17.9 °C 1010.9 hPa 1.6 Km/h E 24.2 mm  18.8 °C 25.4 °C
Vigevano (PV) 11/07/18 23.05 22.6 °C 83 % 19.6 °C 1011.9 hPa 5.0 Km/h E 0.3 mm  19.1 °C 25.3 °C
Villabartolomea (VR) 16/07/18 04.41 17.2 °C 90 % 15.6 °C 1012.4 hPa 12.9 Km/h ESE 19.0 mm  17.2 °C 23.7 °C
Viozene Toria (CN) 16/07/18 05.00 13.3 °C 62 % 6.2 °C 1022.5 hPa 4.0 Km/h N 0.0 mm  13.1 °C 15.9 °C
Viterbo Santa Barbara (VT) 13/07/18 06.37 18.9 °C 78 % 15.0 °C 1016.0 hPa 0.0 Km/h S 0.0 mm  18.2 °C 20.4 °C
Viterbo Strada Bagni (VT) 16/07/18 04.59 0.0 °C 0 % 0.0 °C 1014.1 hPa 0.0 Km/h N 0.0 mm  0.0 °C 0.0 °C
Vitorchiano Pallone (VT) 15/07/18 18.50 30.5 °C 40 % 15.4 °C 1010.9 hPa 12.9 Km/h SW 0.0 mm  21.0 °C 33.1 °C
Vittorio Veneto Parco Fenderl (TV) 16/07/18 00.20 20.2 °C 84 % 17.4 °C 1015.5 hPa 14.5 Km/h NNW 0.0 mm  20.2 °C 20.5 °C
 
(*) = Precipitazioni nelle ultime 24h.
Dati non aggiornati nell'ultima ora.
   
In collaborazione con:
 
Top! Top!